Tremont, Pennsylvania
Current Conditions -  °F | °C
As of 2:22 PM on Thursday 23 Oct 2014 (Local Time) from KMUI Reporting Station
Overcast Overcast  
Wind Chill: 59°   Ceiling: 3100
Heat Index: 59°   Visibility: 10mi
Dew Point: 48°   Wind: 14mph
Humidity: 67%   Direction: 310°NW
Pressure: 29.83"   Gusts: 28mph
Location:  40.63°N, 76.39°W
Report Text: KMUI 231822Z AUTO 31012G24KT 260V010 10SM BKN031 OVC045 15/09 A2983 RMK AO2 WSHFT 16
Loading
Personal Weather Stations






























Interactive Weather Map
Tropical Storm Tracking
New forecast layout! Learn more

10-Day Weather Forecast

Advertisements
Track Severe Weather on mobile